Makin Way — MAKIN — position and weather

sailwx.info

Track history (hours):
 
Tides and Currents Weather Stations Pressure Air Temp Water Temp Dewpoint Dewpoint Depression Visibility Wind Speed Wind Dir Waves Ship Positions

Makin Way

Last reported at 2014-Oct-23 14:29 UTC. Time now 2014-Nov-23 02:22 UTC.
Position N 34°43' W 076°49'.
Warning: this ship's position is 30 days out of date.

Length 22 m.

Type: Pleasure craft. MMSI: 338133584.

Date/timePositionNaut miles runAvg speedWind from/ knotsBaromVisibWave heightAir tempDewpointWater temp
2014-Oct-23 14:29N 34°43' W 076°49'7 7.6
2014-Oct-23 13:33N 34°43' W 076°40'0 0.1
2014-Oct-23 12:33N 34°43' W 076°40'0 0.0
2014-Oct-23 11:30N 34°43' W 076°40'0 0.0
2014-Oct-23 10:33N 34°43' W 076°40'0 0.0
2014-Oct-23 09:15N 34°43' W 076°40'0 0.0
2014-Oct-23 07:24N 34°43' W 076°40'0 0.0
2014-Oct-23 06:33N 34°43' W 076°40'0 0.0
2014-Oct-23 05:30N 34°43' W 076°40'0 0.0
2014-Oct-23 04:33N 34°43' W 076°40'0 0.0
2014-Oct-23 03:33N 34°43' W 076°40'0 0.0
2014-Oct-23 02:33N 34°43' W 076°40'0 0.0
2014-Oct-23 01:33N 34°43' W 076°40'0 0.0
2014-Oct-23 00:30N 34°43' W 076°40'0 0.0
2014-Oct-22 23:30N 34°43' W 076°40'0 0.0
2014-Oct-22 22:33N 34°43' W 076°40'0 0.0
2014-Oct-22 21:33N 34°43' W 076°40'0 0.0
2014-Oct-22 20:30N 34°43' W 076°40'0 0.0
2014-Oct-22 19:33N 34°43' W 076°40'0 0.0
2014-Oct-22 18:33N 34°43' W 076°40'0 0.0
2014-Oct-22 17:33N 34°43' W 076°40'0 0.3
2014-Oct-22 16:33N 34°43' W 076°40'8 8.2
2014-Oct-22 15:33N 34°35' W 076°39'327 9.8
2014-Oct-21 06:12N 39°38' W 074°04'6 9.7
2014-Oct-21 05:33N 39°43' W 074°00'103 8.6
2014-Oct-20 17:33N 40°50' W 072°17'1110.6
2014-Oct-20 16:33N 40°55' W 072°05'1110.9
2014-Oct-20 15:33N 41°01' W 071°52'1010.5
2014-Oct-20 14:33N 41°09' W 071°43'9 9.4
2014-Oct-20 13:33N 41°17' W 071°36'8 7.7
2014-Oct-20 12:33N 41°23' W 071°31'0 0.0
2014-Oct-20 11:30N 41°23' W 071°31'0 0.0
2014-Oct-20 10:33N 41°23' W 071°31'0 0.0
2014-Oct-20 09:33N 41°23' W 071°31'0 0.0
2014-Oct-20 08:33N 41°23' W 071°31'0 0.0
2014-Oct-20 07:33N 41°23' W 071°31'0 0.0
2014-Oct-20 06:33N 41°23' W 071°31'0 0.0
2014-Oct-20 05:33N 41°23' W 071°31'0 0.0
2014-Oct-20 04:33N 41°23' W 071°31'0 0.0
2014-Oct-20 03:33N 41°23' W 071°31'0 0.0
2014-Oct-20 02:33N 41°23' W 071°31'0 0.0
2014-Oct-20 01:33N 41°23' W 071°31'0 0.0
2014-Oct-20 00:33N 41°23' W 071°31'0 0.0
2014-Oct-19 23:33N 41°23' W 071°31'0 0.0
2014-Oct-19 22:27N 41°23' W 071°31'0 0.0
2014-Oct-19 21:33N 41°23' W 071°31'0 0.0
2014-Oct-19 20:33N 41°23' W 071°31'0 0.0
2014-Oct-19 19:33N 41°23' W 071°31'0 0.0
2014-Oct-19 18:33N 41°23' W 071°31'0 0.0
2014-Oct-19 17:33N 41°23' W 071°31'0 0.0
2014-Oct-19 16:33N 41°23' W 071°31'0 0.0
2014-Oct-19 15:33N 41°23' W 071°31'0 0.0
2014-Oct-19 14:33N 41°23' W 071°31'0 0.0
2014-Oct-19 13:33N 41°23' W 071°31'0 0.0
2014-Oct-19 12:33N 41°23' W 071°31'0 0.0
2014-Oct-19 11:30N 41°23' W 071°31'0 0.0
2014-Oct-19 10:33N 41°23' W 071°31'0 0.0
2014-Oct-19 09:33N 41°23' W 071°31'0 0.0
2014-Oct-19 08:33N 41°23' W 071°31'0 0.0
2014-Oct-19 07:33N 41°23' W 071°31'0 0.0
2014-Oct-19 06:33N 41°23' W 071°31'0 0.0
2014-Oct-19 05:33N 41°23' W 071°31'0 0.0
2014-Oct-19 04:33N 41°23' W 071°31'0 0.0
2014-Oct-19 03:33N 41°23' W 071°31'0 0.0
2014-Oct-19 02:33N 41°23' W 071°31'0 0.0
2014-Oct-19 01:33N 41°23' W 071°31'0 0.0
2014-Oct-19 00:33N 41°23' W 071°31'0 0.0
2014-Oct-18 23:33N 41°23' W 071°31'0 0.0
2014-Oct-18 22:33N 41°23' W 071°31'0 0.0
2014-Oct-18 21:33N 41°23' W 071°31'0 0.0
2014-Oct-18 20:33N 41°23' W 071°31'0 0.0
2014-Oct-18 19:33N 41°23' W 071°31'0 0.0
2014-Oct-18 18:33N 41°23' W 071°31'0 0.0
2014-Oct-18 17:33N 41°23' W 071°31'0 0.0
2014-Oct-18 16:33N 41°23' W 071°31'0 0.0
2014-Oct-18 15:33N 41°23' W 071°31'0 0.0
2014-Oct-18 14:33N 41°23' W 071°31'0 0.0
2014-Oct-18 13:33N 41°23' W 071°31'0 0.0
2014-Oct-18 12:33N 41°23' W 071°31'0 0.0
2014-Oct-18 11:30N 41°23' W 071°31'0 0.0
2014-Oct-18 10:30N 41°23' W 071°31'0 0.0
2014-Oct-18 09:33N 41°23' W 071°31'0 0.0
2014-Oct-18 08:33N 41°23' W 071°31'0 0.0
2014-Oct-18 07:33N 41°23' W 071°31'0 0.0
2014-Oct-18 06:33N 41°23' W 071°31'0 0.0
2014-Oct-18 05:33N 41°23' W 071°31'0 0.0
2014-Oct-18 04:33N 41°23' W 071°31'0 0.0
2014-Oct-18 03:33N 41°23' W 071°31'0 0.0
2014-Oct-18 02:33N 41°23' W 071°31'0 0.0
2014-Oct-18 01:33N 41°23' W 071°31'0 0.0
2014-Oct-18 00:33N 41°23' W 071°31'0 0.0
2014-Oct-17 23:33N 41°23' W 071°31'0 0.0
2014-Oct-17 22:33N 41°23' W 071°31'0 0.0
2014-Oct-17 21:33N 41°23' W 071°31'0 0.0
2014-Oct-17 20:33N 41°23' W 071°31'0 0.0
2014-Oct-17 19:33N 41°23' W 071°31'0 0.0
2014-Oct-17 18:33N 41°23' W 071°31'0 0.0
2014-Oct-17 17:33N 41°23' W 071°31'0 0.0
2014-Oct-17 16:33N 41°23' W 071°31'0 0.0
2014-Oct-17 15:33N 41°23' W 071°31'0 0.0
2014-Oct-17 14:33N 41°23' W 071°31'0 0.0
2014-Oct-17 13:33N 41°23' W 071°31'0 0.0
2014-Oct-17 12:33N 41°23' W 071°31'0 0.0
2014-Oct-17 11:33N 41°23' W 071°31'0 0.0
2014-Oct-17 10:33N 41°23' W 071°31'0 0.0
2014-Oct-17 09:33N 41°23' W 071°31'0 0.0
2014-Oct-17 08:33N 41°23' W 071°31'0 0.0
2014-Oct-17 07:33N 41°23' W 071°31'0 0.0
2014-Oct-17 06:33N 41°23' W 071°31'0 0.0
2014-Oct-17 05:33N 41°23' W 071°31'0 0.0
2014-Oct-17 04:33N 41°23' W 071°31'0 0.0
2014-Oct-17 03:30N 41°23' W 071°31'0 0.0
2014-Oct-17 02:33N 41°23' W 071°31'0 0.0
2014-Oct-17 01:33N 41°23' W 071°31'0 0.0
2014-Oct-17 00:33N 41°23' W 071°31'0 0.0
2014-Oct-16 23:30N 41°23' W 071°31'0 0.0
2014-Oct-16 22:33N 41°23' W 071°31'0 0.0
2014-Oct-16 21:33N 41°23' W 071°31'0 0.0
2014-Oct-16 20:33N 41°23' W 071°31'0 0.0
2014-Oct-16 19:33N 41°23' W 071°31'0 0.0
2014-Oct-16 18:33N 41°23' W 071°31'0 0.0
2014-Oct-16 17:30N 41°23' W 071°31'0 0.0
2014-Oct-16 16:30N 41°23' W 071°31'0 0.0
2014-Oct-16 15:33N 41°23' W 071°31'0 0.0
2014-Oct-16 14:30N 41°23' W 071°31'0 0.0
2014-Oct-16 13:24N 41°23' W 071°31'0 0.0
2014-Oct-16 12:30N 41°23' W 071°31'0 0.0
2014-Oct-16 11:34N 41°23' W 071°31'0 0.0
2014-Oct-16 10:33N 41°23' W 071°31'0 0.0
2014-Oct-16 09:30N 41°23' W 071°31'0 0.0
2014-Oct-16 08:33N 41°23' W 071°31'0 0.0
2014-Oct-16 07:33N 41°23' W 071°31'0 0.0
2014-Oct-16 06:33N 41°23' W 071°31'0 0.0
2014-Oct-16 05:30N 41°23' W 071°31'0 0.0
2014-Oct-16 04:33N 41°23' W 071°31'0 0.0
2014-Oct-16 03:30N 41°23' W 071°31'0 0.0
2014-Oct-16 02:33N 41°23' W 071°31'0 0.0
2014-Oct-16 01:33N 41°23' W 071°31'0 0.0
2014-Oct-16 00:33N 41°23' W 071°31'0 0.0
2014-Oct-15 23:30N 41°23' W 071°31'0 0.0
2014-Oct-15 22:28N 41°23' W 071°31'0 0.0
2014-Oct-15 21:34N 41°23' W 071°31'3 2.8
2014-Oct-15 20:34N 41°21' W 071°33'4 3.6
2014-Oct-15 19:33N 41°17' W 071°34'  
Track history (hours):
 
Tides and Currents Weather Stations Pressure Air Temp Water Temp Dewpoint Dewpoint Depression Visibility Wind Speed Wind Dir Waves Ship Positions

Makin Way

Last reported at 2014-Oct-23 14:29 UTC. Time now 2014-Nov-23 02:22 UTC.
Position N 34°43' W 076°49'.
Warning: this ship's position is 30 days out of date.

Length 22 m.

Type: Pleasure craft. MMSI: 338133584.

Date/timePositionNaut miles runAvg speedWind from/ knotsBaromVisibWave heightAir tempDewpointWater temp
2014-Oct-23 14:29N 34°43' W 076°49'7 7.6
2014-Oct-23 13:33N 34°43' W 076°40'0 0.1
2014-Oct-23 12:33N 34°43' W 076°40'0 0.0
2014-Oct-23 11:30N 34°43' W 076°40'0 0.0
2014-Oct-23 10:33N 34°43' W 076°40'0 0.0
2014-Oct-23 09:15N 34°43' W 076°40'0 0.0
2014-Oct-23 07:24N 34°43' W 076°40'0 0.0
2014-Oct-23 06:33N 34°43' W 076°40'0 0.0
2014-Oct-23 05:30N 34°43' W 076°40'0 0.0
2014-Oct-23 04:33N 34°43' W 076°40'0 0.0
2014-Oct-23 03:33N 34°43' W 076°40'0 0.0
2014-Oct-23 02:33N 34°43' W 076°40'0 0.0
2014-Oct-23 01:33N 34°43' W 076°40'0 0.0
2014-Oct-23 00:30N 34°43' W 076°40'0 0.0
2014-Oct-22 23:30N 34°43' W 076°40'0 0.0
2014-Oct-22 22:33N 34°43' W 076°40'0 0.0
2014-Oct-22 21:33N 34°43' W 076°40'0 0.0
2014-Oct-22 20:30N 34°43' W 076°40'0 0.0
2014-Oct-22 19:33N 34°43' W 076°40'0 0.0
2014-Oct-22 18:33N 34°43' W 076°40'0 0.0
2014-Oct-22 17:33N 34°43' W 076°40'0 0.3
2014-Oct-22 16:33N 34°43' W 076°40'8 8.2
2014-Oct-22 15:33N 34°35' W 076°39'327 9.8
2014-Oct-21 06:12N 39°38' W 074°04'6 9.7
2014-Oct-21 05:33N 39°43' W 074°00'103 8.6
2014-Oct-20 17:33N 40°50' W 072°17'1110.6
2014-Oct-20 16:33N 40°55' W 072°05'1110.9
2014-Oct-20 15:33N 41°01' W 071°52'1010.5
2014-Oct-20 14:33N 41°09' W 071°43'9 9.4
2014-Oct-20 13:33N 41°17' W 071°36'8 7.7
2014-Oct-20 12:33N 41°23' W 071°31'0 0.0
2014-Oct-20 11:30N 41°23' W 071°31'0 0.0
2014-Oct-20 10:33N 41°23' W 071°31'0 0.0
2014-Oct-20 09:33N 41°23' W 071°31'0 0.0
2014-Oct-20 08:33N 41°23' W 071°31'0 0.0
2014-Oct-20 07:33N 41°23' W 071°31'0 0.0
2014-Oct-20 06:33N 41°23' W 071°31'0 0.0
2014-Oct-20 05:33N 41°23' W 071°31'0 0.0
2014-Oct-20 04:33N 41°23' W 071°31'0 0.0
2014-Oct-20 03:33N 41°23' W 071°31'0 0.0
2014-Oct-20 02:33N 41°23' W 071°31'0 0.0
2014-Oct-20 01:33N 41°23' W 071°31'0 0.0
2014-Oct-20 00:33N 41°23' W 071°31'0 0.0
2014-Oct-19 23:33N 41°23' W 071°31'0 0.0
2014-Oct-19 22:27N 41°23' W 071°31'0 0.0
2014-Oct-19 21:33N 41°23' W 071°31'0 0.0
2014-Oct-19 20:33N 41°23' W 071°31'0 0.0
2014-Oct-19 19:33N 41°23' W 071°31'0 0.0
2014-Oct-19 18:33N 41°23' W 071°31'0 0.0
2014-Oct-19 17:33N 41°23' W 071°31'0 0.0
2014-Oct-19 16:33N 41°23' W 071°31'0 0.0
2014-Oct-19 15:33N 41°23' W 071°31'0 0.0
2014-Oct-19 14:33N 41°23' W 071°31'0 0.0
2014-Oct-19 13:33N 41°23' W 071°31'0 0.0
2014-Oct-19 12:33N 41°23' W 071°31'0 0.0
2014-Oct-19 11:30N 41°23' W 071°31'0 0.0
2014-Oct-19 10:33N 41°23' W 071°31'0 0.0
2014-Oct-19 09:33N 41°23' W 071°31'0 0.0
2014-Oct-19 08:33N 41°23' W 071°31'0 0.0
2014-Oct-19 07:33N 41°23' W 071°31'0 0.0
2014-Oct-19 06:33N 41°23' W 071°31'0 0.0
2014-Oct-19 05:33N 41°23' W 071°31'0 0.0
2014-Oct-19 04:33N 41°23' W 071°31'0 0.0
2014-Oct-19 03:33N 41°23' W 071°31'0 0.0
2014-Oct-19 02:33N 41°23' W 071°31'0 0.0
2014-Oct-19 01:33N 41°23' W 071°31'0 0.0
2014-Oct-19 00:33N 41°23' W 071°31'0 0.0
2014-Oct-18 23:33N 41°23' W 071°31'0 0.0
2014-Oct-18 22:33N 41°23' W 071°31'0 0.0
2014-Oct-18 21:33N 41°23' W 071°31'0 0.0
2014-Oct-18 20:33N 41°23' W 071°31'0 0.0
2014-Oct-18 19:33N 41°23' W 071°31'0 0.0
2014-Oct-18 18:33N 41°23' W 071°31'0 0.0
2014-Oct-18 17:33N 41°23' W 071°31'0 0.0
2014-Oct-18 16:33N 41°23' W 071°31'0 0.0
2014-Oct-18 15:33N 41°23' W 071°31'0 0.0
2014-Oct-18 14:33N 41°23' W 071°31'0 0.0
2014-Oct-18 13:33N 41°23' W 071°31'0 0.0
2014-Oct-18 12:33N 41°23' W 071°31'0 0.0
2014-Oct-18 11:30N 41°23' W 071°31'0 0.0
2014-Oct-18 10:30N 41°23' W 071°31'0 0.0
2014-Oct-18 09:33N 41°23' W 071°31'0 0.0
2014-Oct-18 08:33N 41°23' W 071°31'0 0.0
2014-Oct-18 07:33N 41°23' W 071°31'0 0.0
2014-Oct-18 06:33N 41°23' W 071°31'0 0.0
2014-Oct-18 05:33N 41°23' W 071°31'0 0.0
2014-Oct-18 04:33N 41°23' W 071°31'0 0.0
2014-Oct-18 03:33N 41°23' W 071°31'0 0.0
2014-Oct-18 02:33N 41°23' W 071°31'0 0.0
2014-Oct-18 01:33N 41°23' W 071°31'0 0.0
2014-Oct-18 00:33N 41°23' W 071°31'0 0.0
2014-Oct-17 23:33N 41°23' W 071°31'0 0.0
2014-Oct-17 22:33N 41°23' W 071°31'0 0.0
2014-Oct-17 21:33N 41°23' W 071°31'0 0.0
2014-Oct-17 20:33N 41°23' W 071°31'0 0.0
2014-Oct-17 19:33N 41°23' W 071°31'0 0.0
2014-Oct-17 18:33N 41°23' W 071°31'0 0.0
2014-Oct-17 17:33N 41°23' W 071°31'0 0.0
2014-Oct-17 16:33N 41°23' W 071°31'0 0.0
2014-Oct-17 15:33N 41°23' W 071°31'0 0.0
2014-Oct-17 14:33N 41°23' W 071°31'0 0.0
2014-Oct-17 13:33N 41°23' W 071°31'0 0.0
2014-Oct-17 12:33N 41°23' W 071°31'0 0.0
2014-Oct-17 11:33N 41°23' W 071°31'0 0.0
2014-Oct-17 10:33N 41°23' W 071°31'0 0.0
2014-Oct-17 09:33N 41°23' W 071°31'0 0.0
2014-Oct-17 08:33N 41°23' W 071°31'0 0.0
2014-Oct-17 07:33N 41°23' W 071°31'0 0.0
2014-Oct-17 06:33N 41°23' W 071°31'0 0.0
2014-Oct-17 05:33N 41°23' W 071°31'0 0.0
2014-Oct-17 04:33N 41°23' W 071°31'0 0.0
2014-Oct-17 03:30N 41°23' W 071°31'0 0.0
2014-Oct-17 02:33N 41°23' W 071°31'0 0.0
2014-Oct-17 01:33N 41°23' W 071°31'0 0.0
2014-Oct-17 00:33N 41°23' W 071°31'0 0.0
2014-Oct-16 23:30N 41°23' W 071°31'0 0.0
2014-Oct-16 22:33N 41°23' W 071°31'0 0.0
2014-Oct-16 21:33N 41°23' W 071°31'0 0.0
2014-Oct-16 20:33N 41°23' W 071°31'0 0.0
2014-Oct-16 19:33N 41°23' W 071°31'0 0.0
2014-Oct-16 18:33N 41°23' W 071°31'0 0.0
2014-Oct-16 17:30N 41°23' W 071°31'0 0.0
2014-Oct-16 16:30N 41°23' W 071°31'0 0.0
2014-Oct-16 15:33N 41°23' W 071°31'0 0.0
2014-Oct-16 14:30N 41°23' W 071°31'0 0.0
2014-Oct-16 13:24N 41°23' W 071°31'0 0.0
2014-Oct-16 12:30N 41°23' W 071°31'0 0.0
2014-Oct-16 11:34N 41°23' W 071°31'0 0.0
2014-Oct-16 10:33N 41°23' W 071°31'0 0.0
2014-Oct-16 09:30N 41°23' W 071°31'0 0.0
2014-Oct-16 08:33N 41°23' W 071°31'0 0.0
2014-Oct-16 07:33N 41°23' W 071°31'0 0.0
2014-Oct-16 06:33N 41°23' W 071°31'0 0.0
2014-Oct-16 05:30N 41°23' W 071°31'0 0.0
2014-Oct-16 04:33N 41°23' W 071°31'0 0.0
2014-Oct-16 03:30N 41°23' W 071°31'0 0.0
2014-Oct-16 02:33N 41°23' W 071°31'0 0.0
2014-Oct-16 01:33N 41°23' W 071°31'0 0.0
2014-Oct-16 00:33N 41°23' W 071°31'0 0.0
2014-Oct-15 23:30N 41°23' W 071°31'0 0.0
2014-Oct-15 22:28N 41°23' W 071°31'0 0.0
2014-Oct-15 21:34N 41°23' W 071°31'3 2.8
2014-Oct-15 20:34N 41°21' W 071°33'4 3.6
2014-Oct-15 19:33N 41°17' W 071°34'  

Dump ship's entire track history